»·PEaware :: WAT542 KSEA-KSFO

WAT542 :: KSEA-KSFO

FLIGHT INFORMATION

Flight Status: Arrived
Operator:
Walker Air Transport
More flights by this operator :: More flights under this callsign
Pilot: Andrew C. (28419)
Aircraft: BOEING 747-200
(B742)
More flights by this aircraft type
Origin: KSEA Seattle-Tacoma Intl
United States
Destination: KSFO San Francisco Intl
United States
More flights between these airports :: More routes between these airports
Route: ELMAA3 CVO RBG STINS4
File this flight plan on PilotEdge
Remarks: RMK / SIMBRIEF
Altitude:
(Current/Filed)
37,000ft
Speed:
(Current/Filed)
490kts
Departed: 13-Oct-21 05:54 PM
Arrived: 13-Oct-21 07:24 PM
Distance/Time
Traveled:
590nm/1:30
Distance/Time
To Go:
Arrived

Flight Plot

Page will automatically refresh every two minutes.

Flight plan parsing failed; only flown route is shown


Map Options




Map Legend


Flown Route
Filed Route
Departure Airport
Arrival Airport
Navaid (VOR, NDB)
Fix

Horizontal Profiles

Position Reports

Time Latitude Longitude Heading Altitude Ground
Speed
13-Oct-21 17:23 47.439421 -122.302546 151 480ft 0kts
13-Oct-21 17:25 47.439421 -122.302546 151 480ft 0kts
13-Oct-21 17:26 47.439421 -122.302546 151 480ft 0kts
13-Oct-21 17:26 47.439421 -122.302546 151 480ft 0kts
13-Oct-21 17:27 47.439421 -122.302546 151 480ft 0kts
13-Oct-21 17:28 47.439421 -122.302546 151 480ft 0kts
13-Oct-21 17:29 47.439421 -122.302546 151 480ft 0kts
13-Oct-21 17:30 47.439421 -122.302546 151 480ft 0kts
13-Oct-21 17:31 47.439421 -122.302546 151 480ft 0kts
13-Oct-21 17:32 47.439421 -122.302546 151 480ft 0kts
13-Oct-21 17:33 47.439421 -122.302546 151 480ft 0kts
13-Oct-21 17:34 47.439421 -122.302546 151 480ft 0kts
13-Oct-21 17:35 47.439421 -122.302546 151 480ft 0kts
13-Oct-21 17:36 47.439421 -122.302546 151 480ft 0kts
13-Oct-21 17:37 47.439421 -122.302546 151 480ft 0kts
13-Oct-21 17:38 47.439421 -122.302546 151 480ft 0kts
13-Oct-21 17:39 47.439556 -122.302657 151 480ft 2kts
13-Oct-21 17:40 47.440135 -122.302772 222 480ft 2kts
13-Oct-21 17:41 47.440257 -122.302548 242 480ft 0kts
13-Oct-21 17:42 47.440257 -122.302548 242 480ft 0kts
13-Oct-21 17:43 47.440257 -122.302548 242 480ft 0kts
13-Oct-21 17:44 47.440257 -122.302548 242 480ft 0kts
13-Oct-21 17:45 47.440257 -122.302548 242 480ft 0kts
13-Oct-21 17:46 47.440258 -122.302551 243 480ft 0kts
13-Oct-21 17:47 47.440026 -122.305674 286 480ft 17kts
13-Oct-21 17:48 47.444550 -122.306323 1 480ft 19kts
13-Oct-21 17:49 47.451303 -122.306269 0 480ft 28kts
13-Oct-21 17:50 47.459767 -122.306169 0 480ft 28kts
13-Oct-21 17:51 47.463704 -122.306745 279 480ft 9kts
13-Oct-21 17:52 47.462474 -122.307780 182 480ft 40kts
13-Oct-21 17:53 47.417936 -122.309728 188 2603ft 221kts
13-Oct-21 17:54 47.348959 -122.309245 181 6282ft 283kts
13-Oct-21 17:55 47.280031 -122.348500 245 10097ft 276kts
13-Oct-21 17:56 47.266665 -122.469863 266 12535ft 329kts
13-Oct-21 17:57 47.255706 -122.609242 266 15656ft 357kts
13-Oct-21 17:58 47.243160 -122.764917 266 18227ft 391kts
13-Oct-21 17:59 47.228579 -122.923695 266 21936ft 390kts
13-Oct-21 18:00 47.209780 -123.085649 262 25030ft 407kts
13-Oct-21 18:01 47.172941 -123.252558 260 28303ft 423kts
13-Oct-21 18:02 47.130210 -123.421176 253 30973ft 445kts
13-Oct-21 18:03 47.011138 -123.520006 189 33089ft 548kts
13-Oct-21 18:04 46.854678 -123.459301 170 35159ft 561kts
13-Oct-21 18:05 46.702489 -123.415677 179 36890ft 545kts
13-Oct-21 18:06 46.548938 -123.394463 183 37201ft 559kts
13-Oct-21 18:07 46.394111 -123.382009 185 37198ft 555kts
13-Oct-21 18:08 46.239875 -123.373074 185 37200ft 556kts
13-Oct-21 18:09 46.085891 -123.365313 186 37222ft 556kts
13-Oct-21 18:10 45.931050 -123.357924 186 37225ft 560kts
13-Oct-21 18:11 45.775768 -123.350616 186 37219ft 558kts
13-Oct-21 18:12 45.619820 -123.343393 186 37219ft 559kts
13-Oct-21 18:13 45.462604 -123.336344 186 37072ft 560kts
13-Oct-21 18:14 45.304931 -123.329083 186 36999ft 558kts
13-Oct-21 18:15 45.149042 -123.322038 186 36999ft 559kts
13-Oct-21 18:16 44.987645 -123.314871 186 36999ft 560kts
13-Oct-21 18:17 44.827550 -123.307834 186 36999ft 559kts
13-Oct-21 18:18 44.667248 -123.300875 186 37000ft 560kts
13-Oct-21 18:19 44.506439 -123.293780 186 36999ft 559kts
13-Oct-21 18:20 44.349863 -123.307759 192 36999ft 552kts
13-Oct-21 18:21 44.189888 -123.317171 190 37000ft 556kts
13-Oct-21 18:22 44.030503 -123.322712 190 36999ft 556kts
13-Oct-21 18:23 43.871917 -123.328259 190 36997ft 555kts
13-Oct-21 18:24 43.712322 -123.333828 190 36999ft 556kts
13-Oct-21 18:25 43.552233 -123.339396 189 36998ft 555kts
13-Oct-21 18:26 43.392800 -123.344940 189 36999ft 557kts
13-Oct-21 18:27 43.238366 -123.350303 189 37259ft 557kts
13-Oct-21 18:28 43.082004 -123.343969 183 37246ft 563kts
13-Oct-21 18:29 42.922277 -123.343554 186 37239ft 559kts
13-Oct-21 18:30 42.760782 -123.338311 186 37239ft 557kts
13-Oct-21 18:31 42.596602 -123.332952 186 37252ft 559kts
13-Oct-21 18:32 42.438713 -123.327709 186 37260ft 558kts
13-Oct-21 18:33 42.283503 -123.322641 186 37260ft 558kts
13-Oct-21 18:34 42.127311 -123.317481 186 37258ft 558kts
13-Oct-21 18:35 41.969881 -123.312286 185 37235ft 557kts
13-Oct-21 18:36 41.818366 -123.307280 185 37209ft 555kts
13-Oct-21 18:37 41.663805 -123.302150 185 37210ft 556kts
13-Oct-21 18:38 41.509430 -123.297308 185 37210ft 556kts
13-Oct-21 18:39 41.355392 -123.292233 185 37200ft 554kts
13-Oct-21 18:40 41.201661 -123.286939 185 37180ft 553kts
13-Oct-21 18:41 41.047647 -123.282159 185 37179ft 554kts
13-Oct-21 18:42 40.897968 -123.271836 181 37180ft 556kts
13-Oct-21 18:43 40.744426 -123.254229 181 37176ft 555kts
13-Oct-21 18:44 40.596154 -123.273525 199 37161ft 535kts
13-Oct-21 18:45 40.447088 -123.295598 189 37159ft 544kts
13-Oct-21 18:46 40.295240 -123.297674 186 37157ft 547kts
13-Oct-21 18:47 40.143300 -123.295270 185 37064ft 546kts
13-Oct-21 18:48 39.991726 -123.292253 185 37064ft 549kts
13-Oct-21 18:49 39.840624 -123.289281 185 37061ft 548kts
13-Oct-21 18:50 39.688019 -123.286305 185 36168ft 551kts
13-Oct-21 18:51 39.538487 -123.283362 184 34264ft 529kts
13-Oct-21 18:52 39.392845 -123.280622 184 32354ft 515kts
13-Oct-21 18:53 39.251958 -123.277994 184 30457ft 502kts
13-Oct-21 18:54 39.114625 -123.275227 183 28557ft 488kts
13-Oct-21 18:55 38.982714 -123.241104 163 26651ft 483kts
13-Oct-21 18:56 38.859619 -123.188548 163 24698ft 467kts
13-Oct-21 18:57 38.737376 -123.137534 164 22611ft 451kts
13-Oct-21 18:58 38.619044 -123.088504 163 20517ft 437kts
13-Oct-21 18:59 38.501234 -123.039909 164 18331ft 423kts
13-Oct-21 19:00 38.392528 -122.995262 163 15837ft 397kts
13-Oct-21 19:01 38.288522 -122.952728 162 12672ft 383kts
13-Oct-21 19:02 38.186943 -122.911333 162 10143ft 312kts
13-Oct-21 19:03 38.101527 -122.876756 165 9018ft 289kts
13-Oct-21 19:04 38.022299 -122.840198 152 9001ft 290kts
13-Oct-21 19:05 37.943196 -122.807275 160 8999ft 288kts
13-Oct-21 19:06 37.862200 -122.771444 160 8999ft 288kts
13-Oct-21 19:07 37.798790 -122.712432 110 9002ft 283kts
13-Oct-21 19:08 37.753842 -122.623274 122 9000ft 283kts
13-Oct-21 19:09 37.706869 -122.535939 122 8999ft 282kts
13-Oct-21 19:10 37.661089 -122.451307 123 8999ft 281kts
13-Oct-21 19:11 37.606534 -122.375028 142 9000ft 282kts
13-Oct-21 19:12 37.540605 -122.314179 143 8999ft 282kts
13-Oct-21 19:13 37.482161 -122.243163 123 9040ft 282kts
13-Oct-21 19:14 37.437181 -122.159468 122 6446ft 273kts
13-Oct-21 19:15 37.446758 -122.079886 29 4125ft 231kts
13-Oct-21 19:16 37.502775 -122.098308 316 3020ft 212kts
13-Oct-21 19:17 37.532945 -122.166416 296 2997ft 209kts
13-Oct-21 19:18 37.561837 -122.234255 297 2180ft 198kts
13-Oct-21 19:19 37.582785 -122.283987 295 1233ft 121kts
13-Oct-21 19:20 37.599390 -122.323532 297 659ft 122kts
13-Oct-21 19:21 37.615282 -122.361382 297 27ft 126kts
13-Oct-21 19:22 37.624698 -122.383868 295 16ft 41kts
13-Oct-21 19:23 37.624997 -122.387113 269 16ft 3kts
13-Oct-21 19:24 37.622400 -122.390560 239 18ft 9kts
13-Oct-21 19:25 37.619401 -122.391329 171 20ft 5kts
13-Oct-21 19:26 37.618649 -122.391733 207 20ft 0kts

Navigation Log

Ident Type
Flight plan parsing failed, navigation log unavailable